Maverick, South Dakota
Current Conditions -  °F | °C
As of 3:53 AM on Sunday 21 Dec 2014 (Local Time) from KCUT Reporting Station
Clear Clear  
Wind Chill: 19°   Ceiling: Unl
Heat Index: 27°   Visibility: 10mi
Dew Point: 22°   Wind: 8mph
Humidity: 81%   Direction: 250°WSW
Pressure: 29.63"   Gusts: NA
Location:  43.346°N, 103.483°W
Report Text: KCUT 211053Z AUTO 25007KT 10SM CLR M03/M06 A2963 RMK AO2 SLP049 T10281056
Loading
Personal Weather Stations






























Interactive Weather Map New forecast layout! Learn more

10-Day Weather Forecast

Advertisements
Track Severe Weather on mobile